sensor_id;sensor_type;location;lat;lon;timestamp;P1;durP1;ratioP1;P2;durP2;ratioP2
37971;SDS011;23794;48.234;8.344;2022-08-19T00:01:32;24.33;;;21.73;;
37971;SDS011;23794;48.234;8.344;2022-08-19T00:04:04;23.70;;;20.48;;
37971;SDS011;23794;48.234;8.344;2022-08-19T00:06:33;28.50;;;22.77;;
37971;SDS011;23794;48.234;8.344;2022-08-19T00:09:02;25.80;;;22.15;;
37971;SDS011;23794;48.234;8.344;2022-08-19T00:11:31;25.30;;;22.58;;
37971;SDS011;23794;48.234;8.344;2022-08-19T00:13:58;20.48;;;18.40;;
37971;SDS011;23794;48.234;8.344;2022-08-19T00:16:25;19.05;;;16.80;;
37971;SDS011;23794;48.234;8.344;2022-08-19T00:18:53;23.88;;;20.80;;
37971;SDS011;23794;48.234;8.344;2022-08-19T00:21:22;30.92;;;24.50;;
37971;SDS011;23794;48.234;8.344;2022-08-19T00:23:50;24.88;;;22.08;;
37971;SDS011;23794;48.234;8.344;2022-08-19T00:26:17;33.60;;;24.70;;
37971;SDS011;23794;48.234;8.344;2022-08-19T00:28:44;27.45;;;23.85;;
37971;SDS011;23794;48.234;8.344;2022-08-19T00:31:10;21.30;;;19.20;;
37971;SDS011;23794;48.234;8.344;2022-08-19T00:33:37;23.70;;;21.20;;
37971;SDS011;23794;48.234;8.344;2022-08-19T00:36:05;19.48;;;17.58;;
37971;SDS011;23794;48.234;8.344;2022-08-19T00:38:34;19.00;;;17.00;;
37971;SDS011;23794;48.234;8.344;2022-08-19T00:41:06;23.08;;;19.58;;
37971;SDS011;23794;48.234;8.344;2022-08-19T00:46:01;21.60;;;18.30;;
37971;SDS011;23794;48.234;8.344;2022-08-19T00:48:31;21.98;;;19.73;;
37971;SDS011;23794;48.234;8.344;2022-08-19T00:50:59;24.55;;;19.92;;
37971;SDS011;23794;48.234;8.344;2022-08-19T00:53:29;25.23;;;22.52;;
37971;SDS011;23794;48.234;8.344;2022-08-19T00:55:58;22.25;;;20.02;;
37971;SDS011;23794;48.234;8.344;2022-08-19T00:58:28;21.10;;;18.80;;
37971;SDS011;23794;48.234;8.344;2022-08-19T01:03:26;20.73;;;18.52;;
37971;SDS011;23794;48.234;8.344;2022-08-19T01:05:53;26.15;;;21.00;;
37971;SDS011;23794;48.234;8.344;2022-08-19T01:08:22;22.52;;;20.15;;
37971;SDS011;23794;48.234;8.344;2022-08-19T01:10:51;25.83;;;19.60;;
37971;SDS011;23794;48.234;8.344;2022-08-19T01:13:22;27.05;;;21.50;;
37971;SDS011;23794;48.234;8.344;2022-08-19T01:15:52;22.92;;;20.45;;
37971;SDS011;23794;48.234;8.344;2022-08-19T01:18:30;21.63;;;19.42;;
37971;SDS011;23794;48.234;8.344;2022-08-19T01:21:02;24.40;;;21.80;;
37971;SDS011;23794;48.234;8.344;2022-08-19T01:23:34;21.77;;;19.58;;
37971;SDS011;23794;48.234;8.344;2022-08-19T01:26:11;23.70;;;21.10;;
37971;SDS011;23794;48.234;8.344;2022-08-19T01:28:40;23.75;;;21.20;;
37971;SDS011;23794;48.234;8.344;2022-08-19T01:31:16;31.40;;;24.95;;
37971;SDS011;23794;48.234;8.344;2022-08-19T01:33:54;27.15;;;23.15;;
37971;SDS011;23794;48.234;8.344;2022-08-19T01:36:32;22.67;;;20.25;;
37971;SDS011;23794;48.234;8.344;2022-08-19T01:39:05;26.48;;;21.58;;
37971;SDS011;23794;48.234;8.344;2022-08-19T01:41:34;24.73;;;21.52;;
37971;SDS011;23794;48.234;8.344;2022-08-19T01:44:02;41.65;;;24.85;;
37971;SDS011;23794;48.234;8.344;2022-08-19T01:46:45;54.85;;;29.65;;
37971;SDS011;23794;48.234;8.344;2022-08-19T01:49:14;48.33;;;28.73;;
37971;SDS011;23794;48.234;8.344;2022-08-19T01:51:43;25.08;;;22.35;;
37971;SDS011;23794;48.234;8.344;2022-08-19T01:54:11;21.10;;;18.88;;
37971;SDS011;23794;48.234;8.344;2022-08-19T01:56:53;33.33;;;25.33;;
37971;SDS011;23794;48.234;8.344;2022-08-19T01:59:24;21.23;;;19.08;;
37971;SDS011;23794;48.234;8.344;2022-08-19T02:01:50;23.00;;;20.42;;
37971;SDS011;23794;48.234;8.344;2022-08-19T02:04:17;24.02;;;20.85;;
37971;SDS011;23794;48.234;8.344;2022-08-19T02:06:44;21.45;;;19.17;;
37971;SDS011;23794;48.234;8.344;2022-08-19T02:09:11;19.00;;;17.02;;
37971;SDS011;23794;48.234;8.344;2022-08-19T02:11:38;24.15;;;21.60;;
37971;SDS011;23794;48.234;8.344;2022-08-19T02:14:05;21.20;;;18.58;;
37971;SDS011;23794;48.234;8.344;2022-08-19T02:16:34;24.77;;;22.10;;
37971;SDS011;23794;48.234;8.344;2022-08-19T02:19:02;22.27;;;19.98;;
37971;SDS011;23794;48.234;8.344;2022-08-19T02:21:29;21.60;;;19.30;;
37971;SDS011;23794;48.234;8.344;2022-08-19T02:23:57;27.60;;;24.67;;
37971;SDS011;23794;48.234;8.344;2022-08-19T02:26:24;22.77;;;20.23;;
37971;SDS011;23794;48.234;8.344;2022-08-19T02:28:52;21.45;;;19.05;;
37971;SDS011;23794;48.234;8.344;2022-08-19T02:31:21;23.38;;;20.23;;
37971;SDS011;23794;48.234;8.344;2022-08-19T02:33:51;25.33;;;22.13;;
37971;SDS011;23794;48.234;8.344;2022-08-19T02:36:22;21.85;;;19.13;;
37971;SDS011;23794;48.234;8.344;2022-08-19T02:38:50;29.42;;;22.85;;
37971;SDS011;23794;48.234;8.344;2022-08-19T02:41:28;20.77;;;18.52;;
37971;SDS011;23794;48.234;8.344;2022-08-19T02:43:57;25.77;;;21.67;;
37971;SDS011;23794;48.234;8.344;2022-08-19T02:46:47;26.60;;;22.77;;
37971;SDS011;23794;48.234;8.344;2022-08-19T02:49:17;22.23;;;19.83;;
37971;SDS011;23794;48.234;8.344;2022-08-19T02:51:45;23.08;;;20.52;;
37971;SDS011;23794;48.234;8.344;2022-08-19T02:54:12;23.77;;;20.98;;
37971;SDS011;23794;48.234;8.344;2022-08-19T02:56:41;25.00;;;21.40;;
37971;SDS011;23794;48.234;8.344;2022-08-19T02:59:09;23.38;;;20.95;;
37971;SDS011;23794;48.234;8.344;2022-08-19T03:01:38;23.85;;;21.35;;
37971;SDS011;23794;48.234;8.344;2022-08-19T03:04:08;23.35;;;20.15;;
37971;SDS011;23794;48.234;8.344;2022-08-19T03:06:36;28.00;;;21.63;;
37971;SDS011;23794;48.234;8.344;2022-08-19T03:09:04;22.52;;;20.13;;
37971;SDS011;23794;48.234;8.344;2022-08-19T03:11:31;25.92;;;22.83;;
37971;SDS011;23794;48.234;8.344;2022-08-19T03:13:59;25.63;;;20.38;;
37971;SDS011;23794;48.234;8.344;2022-08-19T03:16:28;25.30;;;21.83;;
37971;SDS011;23794;48.234;8.344;2022-08-19T03:18:59;24.85;;;22.27;;
37971;SDS011;23794;48.234;8.344;2022-08-19T03:21:29;25.00;;;20.80;;
37971;SDS011;23794;48.234;8.344;2022-08-19T03:23:59;30.52;;;23.02;;
37971;SDS011;23794;48.234;8.344;2022-08-19T03:26:27;22.67;;;19.83;;
37971;SDS011;23794;48.234;8.344;2022-08-19T03:28:54;24.65;;;21.25;;
37971;SDS011;23794;48.234;8.344;2022-08-19T03:31:24;24.23;;;19.10;;
37971;SDS011;23794;48.234;8.344;2022-08-19T03:34:13;20.42;;;18.00;;
37971;SDS011;23794;48.234;8.344;2022-08-19T03:36:44;22.38;;;20.00;;
37971;SDS011;23794;48.234;8.344;2022-08-19T03:39:12;23.20;;;20.50;;
37971;SDS011;23794;48.234;8.344;2022-08-19T03:41:42;21.30;;;19.20;;
37971;SDS011;23794;48.234;8.344;2022-08-19T03:44:13;21.60;;;19.17;;
37971;SDS011;23794;48.234;8.344;2022-08-19T03:46:44;25.85;;;22.65;;
37971;SDS011;23794;48.234;8.344;2022-08-19T03:49:15;22.85;;;20.58;;
37971;SDS011;23794;48.234;8.344;2022-08-19T03:51:45;27.88;;;22.70;;
37971;SDS011;23794;48.234;8.344;2022-08-19T03:54:13;26.30;;;23.42;;
37971;SDS011;23794;48.234;8.344;2022-08-19T03:56:42;24.58;;;19.90;;
37971;SDS011;23794;48.234;8.344;2022-08-19T03:59:12;24.05;;;21.38;;
37971;SDS011;23794;48.234;8.344;2022-08-19T04:04:09;21.35;;;19.15;;
37971;SDS011;23794;48.234;8.344;2022-08-19T04:06:37;31.65;;;25.70;;
37971;SDS011;23794;48.234;8.344;2022-08-19T04:09:07;27.33;;;23.48;;
37971;SDS011;23794;48.234;8.344;2022-08-19T04:11:39;24.05;;;21.65;;
37971;SDS011;23794;48.234;8.344;2022-08-19T04:14:11;24.83;;;21.25;;
37971;SDS011;23794;48.234;8.344;2022-08-19T04:16:40;23.23;;;20.55;;
37971;SDS011;23794;48.234;8.344;2022-08-19T04:19:08;21.67;;;19.48;;
37971;SDS011;23794;48.234;8.344;2022-08-19T04:21:35;25.77;;;21.67;;
37971;SDS011;23794;48.234;8.344;2022-08-19T04:24:02;23.52;;;20.30;;
37971;SDS011;23794;48.234;8.344;2022-08-19T04:26:31;21.88;;;19.58;;
37971;SDS011;23794;48.234;8.344;2022-08-19T04:29:01;21.17;;;18.83;;
37971;SDS011;23794;48.234;8.344;2022-08-19T04:31:37;23.80;;;20.77;;
37971;SDS011;23794;48.234;8.344;2022-08-19T04:34:05;33.45;;;26.52;;
37971;SDS011;23794;48.234;8.344;2022-08-19T04:36:34;22.60;;;20.17;;
37971;SDS011;23794;48.234;8.344;2022-08-19T04:39:04;26.85;;;23.52;;
37971;SDS011;23794;48.234;8.344;2022-08-19T04:41:33;25.70;;;22.63;;
37971;SDS011;23794;48.234;8.344;2022-08-19T04:44:18;28.27;;;22.00;;
37971;SDS011;23794;48.234;8.344;2022-08-19T04:46:47;21.20;;;19.00;;
37971;SDS011;23794;48.234;8.344;2022-08-19T04:49:18;23.42;;;20.17;;
37971;SDS011;23794;48.234;8.344;2022-08-19T04:51:48;24.05;;;20.88;;
37971;SDS011;23794;48.234;8.344;2022-08-19T04:54:17;24.13;;;21.55;;
37971;SDS011;23794;48.234;8.344;2022-08-19T04:57:04;31.40;;;25.00;;
37971;SDS011;23794;48.234;8.344;2022-08-19T04:59:34;24.85;;;21.35;;
37971;SDS011;23794;48.234;8.344;2022-08-19T05:02:02;27.75;;;24.13;;
37971;SDS011;23794;48.234;8.344;2022-08-19T05:04:30;23.40;;;20.00;;
37971;SDS011;23794;48.234;8.344;2022-08-19T05:06:58;30.83;;;26.00;;
37971;SDS011;23794;48.234;8.344;2022-08-19T05:09:26;22.88;;;20.10;;
37971;SDS011;23794;48.234;8.344;2022-08-19T05:12:13;24.55;;;21.23;;
37971;SDS011;23794;48.234;8.344;2022-08-19T05:14:41;24.15;;;21.63;;
37971;SDS011;23794;48.234;8.344;2022-08-19T05:17:08;32.78;;;25.65;;
37971;SDS011;23794;48.234;8.344;2022-08-19T05:19:55;28.77;;;25.33;;
37971;SDS011;23794;48.234;8.344;2022-08-19T05:22:41;29.38;;;24.50;;
37971;SDS011;23794;48.234;8.344;2022-08-19T05:25:12;25.77;;;21.95;;
37971;SDS011;23794;48.234;8.344;2022-08-19T05:27:44;27.98;;;22.40;;
37971;SDS011;23794;48.234;8.344;2022-08-19T05:30:11;26.17;;;22.58;;
37971;SDS011;23794;48.234;8.344;2022-08-19T05:32:39;27.30;;;23.80;;
37971;SDS011;23794;48.234;8.344;2022-08-19T05:35:06;28.42;;;24.15;;
37971;SDS011;23794;48.234;8.344;2022-08-19T05:37:33;35.45;;;27.02;;
37971;SDS011;23794;48.234;8.344;2022-08-19T05:40:00;27.67;;;23.65;;
37971;SDS011;23794;48.234;8.344;2022-08-19T05:42:28;30.88;;;23.95;;
37971;SDS011;23794;48.234;8.344;2022-08-19T05:44:55;30.02;;;24.15;;
37971;SDS011;23794;48.234;8.344;2022-08-19T05:47:22;32.53;;;25.48;;
37971;SDS011;23794;48.234;8.344;2022-08-19T05:49:49;32.78;;;25.00;;
37971;SDS011;23794;48.234;8.344;2022-08-19T05:52:17;33.60;;;26.63;;
37971;SDS011;23794;48.234;8.344;2022-08-19T05:54:51;36.33;;;28.98;;
37971;SDS011;23794;48.234;8.344;2022-08-19T05:57:21;30.30;;;25.90;;
37971;SDS011;23794;48.234;8.344;2022-08-19T05:59:48;29.83;;;22.90;;
37971;SDS011;23794;48.234;8.344;2022-08-19T06:02:24;32.85;;;27.23;;
37971;SDS011;23794;48.234;8.344;2022-08-19T06:04:54;28.75;;;23.75;;
37971;SDS011;23794;48.234;8.344;2022-08-19T06:07:21;32.17;;;25.85;;
37971;SDS011;23794;48.234;8.344;2022-08-19T06:09:48;41.17;;;28.65;;
37971;SDS011;23794;48.234;8.344;2022-08-19T06:12:27;32.80;;;25.50;;
37971;SDS011;23794;48.234;8.344;2022-08-19T06:17:27;32.72;;;25.15;;
37971;SDS011;23794;48.234;8.344;2022-08-19T06:19:56;32.88;;;25.55;;
37971;SDS011;23794;48.234;8.344;2022-08-19T06:22:24;27.95;;;23.45;;
37971;SDS011;23794;48.234;8.344;2022-08-19T06:24:51;31.77;;;24.15;;
37971;SDS011;23794;48.234;8.344;2022-08-19T06:27:20;30.92;;;25.05;;
37971;SDS011;23794;48.234;8.344;2022-08-19T06:29:47;32.42;;;26.00;;
37971;SDS011;23794;48.234;8.344;2022-08-19T06:32:15;32.33;;;26.02;;
37971;SDS011;23794;48.234;8.344;2022-08-19T06:34:42;29.88;;;23.23;;
37971;SDS011;23794;48.234;8.344;2022-08-19T06:37:10;30.55;;;26.70;;
37971;SDS011;23794;48.234;8.344;2022-08-19T06:39:38;34.53;;;27.45;;
37971;SDS011;23794;48.234;8.344;2022-08-19T06:42:06;34.13;;;27.58;;
37971;SDS011;23794;48.234;8.344;2022-08-19T06:44:36;34.60;;;26.73;;
37971;SDS011;23794;48.234;8.344;2022-08-19T06:47:10;34.42;;;27.08;;
37971;SDS011;23794;48.234;8.344;2022-08-19T06:49:52;34.53;;;26.67;;
37971;SDS011;23794;48.234;8.344;2022-08-19T06:52:26;34.42;;;28.52;;
37971;SDS011;23794;48.234;8.344;2022-08-19T06:54:53;36.83;;;28.10;;
37971;SDS011;23794;48.234;8.344;2022-08-19T06:57:25;36.90;;;27.92;;
37971;SDS011;23794;48.234;8.344;2022-08-19T06:59:52;36.78;;;27.25;;
37971;SDS011;23794;48.234;8.344;2022-08-19T07:02:19;34.30;;;28.35;;
37971;SDS011;23794;48.234;8.344;2022-08-19T07:04:47;35.95;;;29.60;;
37971;SDS011;23794;48.234;8.344;2022-08-19T07:07:18;34.83;;;27.85;;
37971;SDS011;23794;48.234;8.344;2022-08-19T07:09:47;33.15;;;27.08;;
37971;SDS011;23794;48.234;8.344;2022-08-19T07:12:25;35.10;;;28.77;;
37971;SDS011;23794;48.234;8.344;2022-08-19T07:15:01;31.95;;;25.83;;
37971;SDS011;23794;48.234;8.344;2022-08-19T07:17:31;33.67;;;27.10;;
37971;SDS011;23794;48.234;8.344;2022-08-19T07:19:59;34.25;;;26.98;;
37971;SDS011;23794;48.234;8.344;2022-08-19T07:22:32;35.72;;;28.70;;
37971;SDS011;23794;48.234;8.344;2022-08-19T07:25:00;27.17;;;23.23;;
37971;SDS011;23794;48.234;8.344;2022-08-19T07:27:29;34.97;;;28.15;;
37971;SDS011;23794;48.234;8.344;2022-08-19T07:29:59;31.27;;;26.33;;
37971;SDS011;23794;48.234;8.344;2022-08-19T07:32:26;31.30;;;26.25;;
37971;SDS011;23794;48.234;8.344;2022-08-19T07:34:53;35.25;;;29.17;;
37971;SDS011;23794;48.234;8.344;2022-08-19T07:37:22;36.92;;;28.15;;
37971;SDS011;23794;48.234;8.344;2022-08-19T07:39:54;28.15;;;24.85;;
37971;SDS011;23794;48.234;8.344;2022-08-19T07:42:21;31.83;;;27.60;;
37971;SDS011;23794;48.234;8.344;2022-08-19T07:44:48;37.38;;;29.05;;
37971;SDS011;23794;48.234;8.344;2022-08-19T07:47:16;29.60;;;26.30;;
37971;SDS011;23794;48.234;8.344;2022-08-19T07:50:05;32.55;;;27.13;;
37971;SDS011;23794;48.234;8.344;2022-08-19T07:55:05;28.25;;;25.02;;
37971;SDS011;23794;48.234;8.344;2022-08-19T07:57:53;31.38;;;24.80;;
37971;SDS011;23794;48.234;8.344;2022-08-19T08:00:21;28.48;;;24.15;;
37971;SDS011;23794;48.234;8.344;2022-08-19T08:02:50;32.03;;;26.25;;
37971;SDS011;23794;48.234;8.344;2022-08-19T08:05:21;33.05;;;26.05;;
37971;SDS011;23794;48.234;8.344;2022-08-19T08:08:09;30.05;;;25.52;;
37971;SDS011;23794;48.234;8.344;2022-08-19T08:10:55;29.23;;;26.10;;
37971;SDS011;23794;48.234;8.344;2022-08-19T08:13:23;33.22;;;26.75;;
37971;SDS011;23794;48.234;8.344;2022-08-19T08:15:51;35.63;;;27.58;;
37971;SDS011;23794;48.234;8.344;2022-08-19T08:18:21;34.85;;;29.52;;
37971;SDS011;23794;48.234;8.344;2022-08-19T08:20:56;29.33;;;25.30;;
37971;SDS011;23794;48.234;8.344;2022-08-19T08:23:24;30.20;;;26.33;;
37971;SDS011;23794;48.234;8.344;2022-08-19T08:25:53;31.00;;;27.70;;
37971;SDS011;23794;48.234;8.344;2022-08-19T08:28:23;34.50;;;25.60;;
37971;SDS011;23794;48.234;8.344;2022-08-19T08:30:51;33.25;;;26.48;;
37971;SDS011;23794;48.234;8.344;2022-08-19T08:33:22;30.92;;;26.88;;
37971;SDS011;23794;48.234;8.344;2022-08-19T08:35:59;29.48;;;25.42;;
37971;SDS011;23794;48.234;8.344;2022-08-19T08:38:33;31.13;;;27.27;;
37971;SDS011;23794;48.234;8.344;2022-08-19T08:41:11;31.35;;;26.90;;
37971;SDS011;23794;48.234;8.344;2022-08-19T08:43:54;32.13;;;26.13;;
37971;SDS011;23794;48.234;8.344;2022-08-19T08:46:34;32.97;;;26.80;;
37971;SDS011;23794;48.234;8.344;2022-08-19T08:51:54;30.90;;;26.20;;
37971;SDS011;23794;48.234;8.344;2022-08-19T08:54:32;29.67;;;26.45;;
37971;SDS011;23794;48.234;8.344;2022-08-19T08:57:07;30.67;;;26.42;;
37971;SDS011;23794;48.234;8.344;2022-08-19T08:59:40;30.75;;;27.10;;
37971;SDS011;23794;48.234;8.344;2022-08-19T09:02:09;31.38;;;27.75;;
37971;SDS011;23794;48.234;8.344;2022-08-19T09:04:36;29.40;;;24.77;;
37971;SDS011;23794;48.234;8.344;2022-08-19T09:13:00;30.25;;;26.80;;
37971;SDS011;23794;48.234;8.344;2022-08-19T09:15:46;29.85;;;26.52;;
37971;SDS011;23794;48.234;8.344;2022-08-19T09:18:17;28.17;;;25.17;;
37971;SDS011;23794;48.234;8.344;2022-08-19T09:20:45;28.88;;;25.77;;
37971;SDS011;23794;48.234;8.344;2022-08-19T09:23:15;31.45;;;28.15;;
37971;SDS011;23794;48.234;8.344;2022-08-19T09:25:42;28.95;;;25.02;;
37971;SDS011;23794;48.234;8.344;2022-08-19T09:28:09;31.25;;;27.73;;
37971;SDS011;23794;48.234;8.344;2022-08-19T09:30:48;29.70;;;26.40;;
37971;SDS011;23794;48.234;8.344;2022-08-19T09:33:18;29.55;;;26.42;;
37971;SDS011;23794;48.234;8.344;2022-08-19T09:35:47;29.27;;;26.10;;
37971;SDS011;23794;48.234;8.344;2022-08-19T09:38:19;28.67;;;25.67;;
37971;SDS011;23794;48.234;8.344;2022-08-19T09:40:46;28.27;;;25.27;;
37971;SDS011;23794;48.234;8.344;2022-08-19T09:43:13;30.33;;;27.17;;
37971;SDS011;23794;48.234;8.344;2022-08-19T09:45:58;29.60;;;26.40;;
37971;SDS011;23794;48.234;8.344;2022-08-19T09:48:26;27.67;;;24.67;;
37971;SDS011;23794;48.234;8.344;2022-08-19T09:50:53;35.38;;;27.58;;
37971;SDS011;23794;48.234;8.344;2022-08-19T09:53:20;29.02;;;25.92;;
37971;SDS011;23794;48.234;8.344;2022-08-19T09:55:51;27.83;;;24.92;;
37971;SDS011;23794;48.234;8.344;2022-08-19T09:58:18;27.63;;;24.92;;
37971;SDS011;23794;48.234;8.344;2022-08-19T10:00:51;27.67;;;24.77;;
37971;SDS011;23794;48.234;8.344;2022-08-19T10:03:19;27.17;;;24.17;;
37971;SDS011;23794;48.234;8.344;2022-08-19T10:05:50;27.52;;;24.60;;
37971;SDS011;23794;48.234;8.344;2022-08-19T10:08:34;28.52;;;25.15;;
37971;SDS011;23794;48.234;8.344;2022-08-19T10:11:03;26.00;;;23.20;;
37971;SDS011;23794;48.234;8.344;2022-08-19T10:13:50;24.80;;;22.27;;
37971;SDS011;23794;48.234;8.344;2022-08-19T10:16:18;26.63;;;23.85;;
37971;SDS011;23794;48.234;8.344;2022-08-19T10:18:51;26.05;;;23.20;;
37971;SDS011;23794;48.234;8.344;2022-08-19T10:21:25;27.17;;;23.55;;
37971;SDS011;23794;48.234;8.344;2022-08-19T10:23:58;26.50;;;23.75;;
37971;SDS011;23794;48.234;8.344;2022-08-19T10:26:38;26.53;;;23.80;;
37971;SDS011;23794;48.234;8.344;2022-08-19T10:29:12;26.40;;;23.48;;
37971;SDS011;23794;48.234;8.344;2022-08-19T10:31:58;26.67;;;23.55;;
37971;SDS011;23794;48.234;8.344;2022-08-19T10:34:38;27.45;;;24.85;;
37971;SDS011;23794;48.234;8.344;2022-08-19T10:37:14;28.75;;;25.52;;
37971;SDS011;23794;48.234;8.344;2022-08-19T10:39:49;27.83;;;25.05;;
37971;SDS011;23794;48.234;8.344;2022-08-19T10:42:17;29.30;;;26.30;;
37971;SDS011;23794;48.234;8.344;2022-08-19T10:44:45;26.35;;;23.67;;
37971;SDS011;23794;48.234;8.344;2022-08-19T10:47:12;23.10;;;20.88;;
37971;SDS011;23794;48.234;8.344;2022-08-19T10:49:49;25.05;;;22.60;;
37971;SDS011;23794;48.234;8.344;2022-08-19T10:52:46;25.33;;;22.80;;
37971;SDS011;23794;48.234;8.344;2022-08-19T10:55:20;29.02;;;24.13;;
37971;SDS011;23794;48.234;8.344;2022-08-19T10:58:15;25.60;;;22.92;;
37971;SDS011;23794;48.234;8.344;2022-08-19T11:00:50;28.08;;;24.90;;
37971;SDS011;23794;48.234;8.344;2022-08-19T11:03:25;23.73;;;21.35;;
37971;SDS011;23794;48.234;8.344;2022-08-19T11:06:00;25.48;;;22.95;;
37971;SDS011;23794;48.234;8.344;2022-08-19T11:08:29;25.55;;;22.92;;
37971;SDS011;23794;48.234;8.344;2022-08-19T11:10:58;27.55;;;24.77;;
37971;SDS011;23794;48.234;8.344;2022-08-19T11:13:30;27.08;;;24.38;;
37971;SDS011;23794;48.234;8.344;2022-08-19T11:16:00;26.77;;;23.98;;
37971;SDS011;23794;48.234;8.344;2022-08-19T11:18:37;26.38;;;23.88;;
37971;SDS011;23794;48.234;8.344;2022-08-19T11:21:09;24.48;;;21.98;;
37971;SDS011;23794;48.234;8.344;2022-08-19T11:23:47;24.30;;;21.70;;
37971;SDS011;23794;48.234;8.344;2022-08-19T11:26:16;23.33;;;21.02;;
37971;SDS011;23794;48.234;8.344;2022-08-19T11:28:44;23.67;;;20.90;;
37971;SDS011;23794;48.234;8.344;2022-08-19T11:31:13;25.38;;;22.80;;
37971;SDS011;23794;48.234;8.344;2022-08-19T11:33:41;23.53;;;21.20;;
37971;SDS011;23794;48.234;8.344;2022-08-19T11:38:40;23.20;;;20.90;;
37971;SDS011;23794;48.234;8.344;2022-08-19T11:41:07;22.15;;;19.80;;
37971;SDS011;23794;48.234;8.344;2022-08-19T11:43:35;22.40;;;20.15;;
37971;SDS011;23794;48.234;8.344;2022-08-19T11:46:03;21.45;;;19.40;;
37971;SDS011;23794;48.234;8.344;2022-08-19T11:48:36;24.73;;;22.52;;
37971;SDS011;23794;48.234;8.344;2022-08-19T11:51:04;22.08;;;19.77;;
37971;SDS011;23794;48.234;8.344;2022-08-19T11:53:35;21.08;;;19.17;;
37971;SDS011;23794;48.234;8.344;2022-08-19T11:56:02;22.67;;;20.38;;
37971;SDS011;23794;48.234;8.344;2022-08-19T11:58:30;22.63;;;20.45;;
37971;SDS011;23794;48.234;8.344;2022-08-19T12:00:57;24.08;;;21.80;;
37971;SDS011;23794;48.234;8.344;2022-08-19T12:03:24;24.33;;;21.90;;
37971;SDS011;23794;48.234;8.344;2022-08-19T12:05:51;24.55;;;22.10;;
37971;SDS011;23794;48.234;8.344;2022-08-19T12:08:18;23.58;;;21.25;;
37971;SDS011;23794;48.234;8.344;2022-08-19T12:10:45;22.88;;;20.50;;
37971;SDS011;23794;48.234;8.344;2022-08-19T12:13:12;22.17;;;20.02;;
37971;SDS011;23794;48.234;8.344;2022-08-19T12:15:45;23.70;;;21.20;;
37971;SDS011;23794;48.234;8.344;2022-08-19T12:18:13;23.77;;;21.38;;
37971;SDS011;23794;48.234;8.344;2022-08-19T12:20:41;22.05;;;19.95;;
37971;SDS011;23794;48.234;8.344;2022-08-19T12:23:09;22.42;;;20.20;;
37971;SDS011;23794;48.234;8.344;2022-08-19T12:25:36;19.35;;;17.45;;
37971;SDS011;23794;48.234;8.344;2022-08-19T12:28:09;22.80;;;20.42;;
37971;SDS011;23794;48.234;8.344;2022-08-19T12:30:37;21.73;;;19.58;;
37971;SDS011;23794;48.234;8.344;2022-08-19T12:33:04;21.55;;;19.45;;
37971;SDS011;23794;48.234;8.344;2022-08-19T12:35:31;21.40;;;19.30;;
37971;SDS011;23794;48.234;8.344;2022-08-19T12:37:57;21.67;;;19.58;;
37971;SDS011;23794;48.234;8.344;2022-08-19T12:40:25;22.05;;;19.95;;
37971;SDS011;23794;48.234;8.344;2022-08-19T12:42:53;23.35;;;21.05;;
37971;SDS011;23794;48.234;8.344;2022-08-19T12:45:20;21.50;;;19.35;;
37971;SDS011;23794;48.234;8.344;2022-08-19T12:47:47;21.08;;;18.98;;
37971;SDS011;23794;48.234;8.344;2022-08-19T12:50:15;22.40;;;20.20;;
37971;SDS011;23794;48.234;8.344;2022-08-19T12:52:42;21.85;;;19.52;;
37971;SDS011;23794;48.234;8.344;2022-08-19T12:55:08;20.15;;;18.27;;
37971;SDS011;23794;48.234;8.344;2022-08-19T12:57:36;22.13;;;19.92;;
37971;SDS011;23794;48.234;8.344;2022-08-19T13:00:08;21.50;;;19.40;;
37971;SDS011;23794;48.234;8.344;2022-08-19T13:02:40;20.80;;;18.80;;
37971;SDS011;23794;48.234;8.344;2022-08-19T13:05:11;22.52;;;20.33;;
37971;SDS011;23794;48.234;8.344;2022-08-19T13:07:42;18.02;;;16.23;;
37971;SDS011;23794;48.234;8.344;2022-08-19T13:10:10;19.95;;;18.10;;
37971;SDS011;23794;48.234;8.344;2022-08-19T13:12:38;18.40;;;16.58;;
37971;SDS011;23794;48.234;8.344;2022-08-19T13:15:07;19.63;;;16.70;;
37971;SDS011;23794;48.234;8.344;2022-08-19T13:17:36;16.80;;;15.05;;
37971;SDS011;23794;48.234;8.344;2022-08-19T13:20:04;14.50;;;13.10;;
37971;SDS011;23794;48.234;8.344;2022-08-19T13:22:34;13.63;;;12.30;;
37971;SDS011;23794;48.234;8.344;2022-08-19T13:25:02;13.90;;;12.60;;
37971;SDS011;23794;48.234;8.344;2022-08-19T13:27:31;13.25;;;12.05;;
37971;SDS011;23794;48.234;8.344;2022-08-19T13:29:58;13.88;;;12.50;;
37971;SDS011;23794;48.234;8.344;2022-08-19T13:32:44;13.45;;;12.15;;
37971;SDS011;23794;48.234;8.344;2022-08-19T13:35:30;14.73;;;13.00;;
37971;SDS011;23794;48.234;8.344;2022-08-19T13:37:57;12.88;;;11.50;;
37971;SDS011;23794;48.234;8.344;2022-08-19T13:40:24;13.85;;;10.35;;
37971;SDS011;23794;48.234;8.344;2022-08-19T13:42:53;10.20;;;9.30;;
37971;SDS011;23794;48.234;8.344;2022-08-19T13:45:22;13.50;;;12.30;;
37971;SDS011;23794;48.234;8.344;2022-08-19T13:47:51;12.50;;;11.40;;
37971;SDS011;23794;48.234;8.344;2022-08-19T13:50:28;14.52;;;10.82;;
37971;SDS011;23794;48.234;8.344;2022-08-19T13:52:57;11.82;;;10.65;;
37971;SDS011;23794;48.234;8.344;2022-08-19T13:55:24;12.52;;;11.27;;
37971;SDS011;23794;48.234;8.344;2022-08-19T13:57:52;11.85;;;10.68;;
37971;SDS011;23794;48.234;8.344;2022-08-19T14:00:20;12.02;;;10.93;;
37971;SDS011;23794;48.234;8.344;2022-08-19T14:02:50;11.30;;;10.05;;
37971;SDS011;23794;48.234;8.344;2022-08-19T14:05:19;11.48;;;10.27;;
37971;SDS011;23794;48.234;8.344;2022-08-19T14:07:46;10.60;;;9.55;;
37971;SDS011;23794;48.234;8.344;2022-08-19T14:10:14;10.07;;;9.20;;
37971;SDS011;23794;48.234;8.344;2022-08-19T14:12:42;9.25;;;8.50;;
37971;SDS011;23794;48.234;8.344;2022-08-19T14:15:09;10.73;;;9.63;;
37971;SDS011;23794;48.234;8.344;2022-08-19T14:17:41;10.77;;;9.77;;
37971;SDS011;23794;48.234;8.344;2022-08-19T14:20:10;9.82;;;8.93;;
37971;SDS011;23794;48.234;8.344;2022-08-19T14:22:44;9.68;;;8.77;;
37971;SDS011;23794;48.234;8.344;2022-08-19T14:25:14;9.75;;;8.88;;
37971;SDS011;23794;48.234;8.344;2022-08-19T14:27:46;9.30;;;8.40;;
37971;SDS011;23794;48.234;8.344;2022-08-19T14:30:17;11.07;;;9.90;;
37971;SDS011;23794;48.234;8.344;2022-08-19T14:32:53;11.05;;;9.95;;
37971;SDS011;23794;48.234;8.344;2022-08-19T14:35:21;8.25;;;7.50;;
37971;SDS011;23794;48.234;8.344;2022-08-19T14:37:48;9.38;;;8.40;;
37971;SDS011;23794;48.234;8.344;2022-08-19T14:40:17;10.48;;;8.80;;
37971;SDS011;23794;48.234;8.344;2022-08-19T14:42:49;9.13;;;8.23;;
37971;SDS011;23794;48.234;8.344;2022-08-19T14:45:15;9.55;;;8.75;;
37971;SDS011;23794;48.234;8.344;2022-08-19T14:47:42;9.65;;;8.85;;
37971;SDS011;23794;48.234;8.344;2022-08-19T14:50:11;8.48;;;7.68;;
37971;SDS011;23794;48.234;8.344;2022-08-19T14:52:44;9.43;;;8.52;;
37971;SDS011;23794;48.234;8.344;2022-08-19T14:55:14;9.93;;;8.95;;
37971;SDS011;23794;48.234;8.344;2022-08-19T14:57:43;9.52;;;8.60;;
37971;SDS011;23794;48.234;8.344;2022-08-19T15:00:10;10.27;;;9.00;;
37971;SDS011;23794;48.234;8.344;2022-08-19T15:02:41;10.35;;;9.43;;
37971;SDS011;23794;48.234;8.344;2022-08-19T15:05:10;10.82;;;9.73;;
37971;SDS011;23794;48.234;8.344;2022-08-19T15:07:38;11.75;;;10.63;;